Time;durP1;ratioP1;P1;durP2;ratioP2;P2;SDS_P1;SDS_P2;PMS_P1;PMS_P2;Temp;Humidity;BMP_temperature;BMP_pressure;BME280_temperature;BME280_humidity;BME280_pressure;Samples;Min_cycle;Max_cycle;Signal;HPM_P1;HPM_P2
2023/10/27 00:00:30;;;;;;;0.95;0.40;;;;;;;8.80;100.00;91018.06;2089018;28;20024;-86
2023/10/27 00:01:31;;;;;;;3.35;0.60;;;;;;;8.70;100.00;91020.06;2082206;28;20100;-84
2023/10/27 00:02:36;;;;;;;3.50;0.80;;;;;;;8.62;100.00;91016.28;2082517;28;20032;-83
2023/10/27 00:03:37;;;;;;;2.47;0.57;;;;;;;8.61;100.00;91014.81;2082998;28;20029;-84
2023/10/27 00:04:38;;;;;;;3.28;0.63;;;;;;;8.62;100.00;91015.53;2082482;28;20032;-84
2023/10/27 00:05:39;;;;;;;1.35;0.70;;;;;;;8.74;100.00;91014.56;2090715;28;20470;-85
2023/10/27 00:06:40;;;;;;;4.30;0.63;;;;;;;8.77;100.00;91008.31;2090504;28;20025;-82
2023/10/27 00:07:41;;;;;;;4.72;0.50;;;;;;;8.62;100.00;91012.88;2074168;28;20037;-85
2023/10/27 00:08:43;;;;;;;3.03;0.60;;;;;;;8.38;100.00;91010.94;2074201;28;20055;-87
2023/10/27 00:09:44;;;;;;;1.80;0.60;;;;;;;8.48;100.00;91009.72;2066343;28;20026;-85
2023/10/27 00:10:45;;;;;;;1.98;0.60;;;;;;;8.48;100.00;91004.38;2078598;28;20184;-84
2023/10/27 00:11:46;;;;;;;2.30;1.25;;;;;;;8.77;100.00;91014.38;2082269;28;20025;-86
2023/10/27 00:12:47;;;;;;;7.68;0.70;;;;;;;8.68;100.00;91011.78;2082537;28;20596;-83
2023/10/27 00:13:47;;;;;;;2.88;0.50;;;;;;;8.64;100.00;91010.47;2079710;28;20773;-84
2023/10/27 00:14:48;;;;;;;4.13;0.50;;;;;;;8.73;100.00;91013.06;2081505;28;20025;-85
2023/10/27 00:15:49;;;;;;;3.08;0.50;;;;;;;8.55;100.00;91009.34;2082350;28;20022;-84
2023/10/27 00:16:52;;;;;;;1.42;0.60;;;;;;;8.68;100.00;91006.44;2073997;28;20046;-85
2023/10/27 00:17:56;;;;;;;3.70;0.60;;;;;;;8.82;100.00;91002.34;2079145;28;20025;-83
2023/10/27 00:18:57;;;;;;;1.60;0.40;;;;;;;8.78;100.00;91007.13;2090474;28;20040;-85
2023/10/27 00:19:58;;;;;;;2.30;0.30;;;;;;;8.68;100.00;91008.38;2081870;28;20032;-85
2023/10/27 00:20:59;;;;;;;1.10;0.40;;;;;;;8.75;100.00;90995.47;2074068;28;20041;-85
2023/10/27 00:22:00;;;;;;;3.03;0.52;;;;;;;8.71;100.00;90994.91;2082219;28;20022;-85
2023/10/27 00:23:01;;;;;;;4.18;0.70;;;;;;;8.84;100.00;90997.31;2073917;28;20018;-83
2023/10/27 00:24:02;;;;;;;0.80;0.30;;;;;;;8.68;100.00;90995.81;2074109;28;20105;-84
2023/10/27 00:25:04;;;;;;;0.30;0.30;;;;;;;8.46;100.00;91004.09;2081825;28;20030;-85
2023/10/27 00:26:05;;;;;;;2.05;0.40;;;;;;;8.46;100.00;91000.69;2077608;28;20029;-84
2023/10/27 00:27:06;;;;;;;0.75;0.40;;;;;;;8.73;100.00;91002.41;2071235;28;20140;-84
2023/10/27 00:28:07;;;;;;;0.95;0.32;;;;;;;8.78;100.00;90999.13;1999833;28;22148;-84
2023/10/27 00:29:08;;;;;;;0.75;0.40;;;;;;;8.75;100.00;90995.47;1991155;28;20034;-86
2023/10/27 00:30:09;;;;;;;0.65;0.40;;;;;;;8.74;100.00;90995.94;2015797;28;20116;-83
2023/10/27 00:31:19;;;;;;;0.50;0.30;;;;;;;8.63;100.00;90998.34;2033350;28;20055;-83
2023/10/27 00:32:22;;;;;;;1.25;0.32;;;;;;;8.56;100.00;90992.19;2033119;28;20156;-84
2023/10/27 00:33:23;;;;;;;1.35;0.30;;;;;;;8.48;100.00;90987.69;2033374;28;20034;-85
2023/10/27 00:34:24;;;;;;;3.03;0.40;;;;;;;8.85;100.00;90990.78;2058580;28;20029;-81
2023/10/27 00:35:25;;;;;;;4.47;0.40;;;;;;;8.77;100.00;90989.66;2075254;28;20029;-85
2023/10/27 00:36:26;;;;;;;1.35;0.40;;;;;;;8.72;100.00;90993.69;2065985;28;20148;-85
2023/10/27 00:37:27;;;;;;;1.83;0.40;;;;;;;8.64;100.00;90987.25;2072311;28;20040;-85
2023/10/27 00:38:30;;;;;;;2.65;0.40;;;;;;;8.66;100.00;90984.16;2082180;28;20491;-84
2023/10/27 00:39:31;;;;;;;1.85;0.40;;;;;;;8.64;100.00;90989.19;2074535;28;20050;-85
2023/10/27 00:40:32;;;;;;;1.35;0.40;;;;;;;8.61;100.00;90990.09;2090344;28;20017;-82
2023/10/27 00:41:33;;;;;;;2.05;0.40;;;;;;;8.69;100.00;90983.97;2090250;28;20047;-85
2023/10/27 00:42:33;;;;;;;2.72;0.85;;;;;;;8.68;100.00;90987.81;2082127;28;20079;-84
2023/10/27 00:43:34;;;;;;;1.75;0.43;;;;;;;8.51;100.00;90997.41;2082178;28;20495;-82
2023/10/27 00:44:35;;;;;;;3.13;0.40;;;;;;;8.55;100.00;90992.63;2090500;28;20471;-83
2023/10/27 00:45:36;;;;;;;2.72;0.50;;;;;;;8.59;100.00;91001.19;2082144;28;20033;-84
2023/10/27 00:46:39;;;;;;;1.25;0.50;;;;;;;8.75;100.00;90984.06;2073958;28;20484;-84
2023/10/27 00:47:40;;;;;;;2.05;0.45;;;;;;;8.46;100.00;90990.03;2074149;28;20156;-84
2023/10/27 00:48:41;;;;;;;1.58;0.40;;;;;;;8.28;100.00;90990.88;2082000;28;20025;-84
2023/10/27 00:49:43;;;;;;;1.58;0.30;;;;;;;8.54;100.00;90985.84;2082085;28;20509;-85
2023/10/27 00:50:47;;;;;;;3.45;0.40;;;;;;;8.54;100.00;90991.91;2064860;28;20412;-86
2023/10/27 00:51:49;;;;;;;0.30;0.20;;;;;;;8.55;100.00;90987.31;2074435;28;20116;-84
2023/10/27 00:52:51;;;;;;;0.52;0.40;;;;;;;8.54;100.00;90985.84;2082072;28;20057;-83
2023/10/27 00:53:52;;;;;;;2.42;0.45;;;;;;;8.42;100.00;90984.88;2090314;28;20029;-83
2023/10/27 00:54:54;;;;;;;2.45;0.32;;;;;;;8.38;100.00;90975.59;2090306;28;20087;-85
2023/10/27 00:55:55;;;;;;;1.00;0.50;;;;;;;8.29;100.00;90990.41;2074043;28;20479;-84
2023/10/27 00:56:57;;;;;;;0.30;0.30;;;;;;;8.44;100.00;90984.44;2073859;28;20096;-85
2023/10/27 00:57:58;;;;;;;1.25;0.40;;;;;;;8.58;100.00;90981.81;2072862;28;20553;-87
2023/10/27 00:58:59;;;;;;;1.48;0.50;;;;;;;8.75;100.00;90976.09;2072741;28;20025;-85
2023/10/27 01:00:00;;;;;;;4.05;0.55;;;;;;;8.66;100.00;90978.81;2073849;28;20445;-84
2023/10/27 01:01:03;;;;;;;1.30;0.50;;;;;;;8.66;100.00;90978.81;2081883;28;20058;-84
2023/10/27 01:02:04;;;;;;;2.72;0.60;;;;;;;8.56;100.00;90973.56;2075174;28;20022;-86
2023/10/27 01:03:04;;;;;;;1.88;0.32;;;;;;;8.71;100.00;90970.94;2076085;28;20053;-85
2023/10/27 01:04:05;;;;;;;3.90;0.70;;;;;;;8.65;100.00;90977.31;2081214;28;20053;-85
2023/10/27 01:05:08;;;;;;;3.08;0.60;;;;;;;8.60;100.00;90973.38;2081713;28;20066;-82
2023/10/27 01:06:10;;;;;;;0.77;0.47;;;;;;;8.68;100.00;90973.75;2082142;28;20040;-83
2023/10/27 01:07:12;;;;;;;2.00;0.50;;;;;;;8.72;100.00;90969.72;2073785;28;20143;-86
2023/10/27 01:08:13;;;;;;;5.20;0.55;;;;;;;8.64;100.00;90971.25;2073812;28;20036;-85
2023/10/27 01:09:15;;;;;;;2.08;0.50;;;;;;;8.76;100.00;90964.22;2073735;28;20026;-84
2023/10/27 01:10:16;;;;;;;1.10;0.45;;;;;;;8.83;100.00;90969.94;2082216;28;20060;-85
2023/10/27 01:11:18;;;;;;;1.98;0.35;;;;;;;8.61;100.00;90969.53;2073751;28;20028;-84
2023/10/27 01:12:19;;;;;;;1.65;0.52;;;;;;;8.58;100.00;90971.16;2065289;28;20061;-85
2023/10/27 01:13:20;;;;;;;1.55;0.60;;;;;;;8.63;100.00;90979.72;2065340;28;20022;-87
2023/10/27 01:14:22;;;;;;;1.00;0.40;;;;;;;8.68;100.00;90973.75;2065749;28;20260;-86
2023/10/27 01:15:23;;;;;;;1.30;0.43;;;;;;;8.68;100.00;90965.78;2081315;28;20459;-84
2023/10/27 01:16:27;;;;;;;1.02;0.47;;;;;;;8.56;100.00;90973.56;2077803;28;20109;-84
2023/10/27 01:17:28;;;;;;;0.88;0.50;;;;;;;8.66;100.00;90962.84;2065960;28;20026;-84
2023/10/27 01:18:29;;;;;;;0.40;0.40;;;;;;;8.59;100.00;90969.25;2081816;28;20052;-86
2023/10/27 01:19:30;;;;;;;0.80;0.55;;;;;;;8.74;100.00;90966.63;2090120;28;20021;-85
2023/10/27 01:20:31;;;;;;;1.77;0.40;;;;;;;8.76;100.00;90961.56;2090719;28;20704;-84
2023/10/27 01:21:32;;;;;;;1.00;0.32;;;;;;;8.76;100.00;90970.28;2081673;28;20504;-84
2023/10/27 01:22:39;;;;;;;1.08;0.32;;;;;;;8.53;100.00;90966.47;2073721;28;20073;-86
2023/10/27 01:23:46;;;;;;;1.10;0.40;;;;;;;8.78;100.00;90959.94;2075388;28;20026;-84
2023/10/27 01:24:48;;;;;;;1.45;0.40;;;;;;;8.74;100.00;90967.34;2081890;28;20022;-84
2023/10/27 01:25:49;;;;;;;3.20;0.50;;;;;;;8.44;100.00;90971.13;2073555;28;20024;-85
2023/10/27 01:26:50;;;;;;;1.17;0.70;;;;;;;8.45;100.00;90959.28;2073668;28;20048;-85
2023/10/27 01:27:51;;;;;;;2.22;0.40;;;;;;;8.54;100.00;90962.63;2069684;28;20026;-84
2023/10/27 01:28:52;;;;;;;4.78;0.50;;;;;;;8.53;100.00;90953.16;2075522;28;20111;-83
2023/10/27 01:29:53;;;;;;;1.05;0.50;;;;;;;8.65;100.00;90954.13;2060436;28;20101;-83
2023/10/27 01:30:54;;;;;;;1.25;0.63;;;;;;;8.57;100.00;90955.66;2081661;28;20029;-83
2023/10/27 01:31:55;;;;;;;2.88;0.70;;;;;;;8.75;100.00;90955.50;2081778;28;20173;-83
2023/10/27 01:32:56;;;;;;;0.93;0.60;;;;;;;8.83;100.00;90953.22;2089905;28;20021;-85
2023/10/27 01:33:57;;;;;;;1.25;0.52;;;;;;;8.89;100.00;90948.00;2081880;28;20088;-83
2023/10/27 01:34:58;;;;;;;2.92;0.50;;;;;;;8.52;100.00;90946.38;2088270;28;20064;-85
2023/10/27 01:35:59;;;;;;;3.53;0.60;;;;;;;8.41;100.00;90938.16;2081457;28;20025;-83
2023/10/27 01:37:00;;;;;;;0.50;0.50;;;;;;;8.52;100.00;90938.38;2065306;28;20037;-85
2023/10/27 01:38:02;;;;;;;2.17;0.63;;;;;;;8.51;100.00;90936.91;2073464;28;20034;-85
2023/10/27 01:39:03;;;;;;;0.93;0.50;;;;;;;8.45;100.00;90930.75;2073630;28;20058;-84
2023/10/27 01:40:04;;;;;;;2.17;0.40;;;;;;;8.36;100.00;90935.38;2080465;28;20036;-83
2023/10/27 01:41:05;;;;;;;4.18;0.57;;;;;;;8.42;100.00;90930.91;2089923;28;20044;-83
2023/10/27 01:42:06;;;;;;;1.10;0.45;;;;;;;8.53;100.00;90939.84;2089861;28;20021;-84
2023/10/27 01:43:07;;;;;;;1.38;0.30;;;;;;;8.50;100.00;90934.69;2073546;28;20425;-83
2023/10/27 01:44:09;;;;;;;2.55;0.40;;;;;;;8.56;100.00;90932.88;2081622;28;20205;-86
2023/10/27 01:45:11;;;;;;;1.52;0.50;;;;;;;8.51;100.00;90928.19;2073402;28;20030;-83
2023/10/27 01:46:14;;;;;;;1.00;0.52;;;;;;;8.70;100.00;90929.50;2073817;28;20025;-83
2023/10/27 01:47:15;;;;;;;1.65;0.40;;;;;;;8.65;100.00;90932.81;2081449;28;20021;-85
2023/10/27 01:48:16;;;;;;;1.75;0.63;;;;;;;8.48;100.00;90937.81;2073529;28;20108;-86
2023/10/27 01:49:17;;;;;;;0.50;0.40;;;;;;;8.54;100.00;90938.66;2073272;28;20026;-86
2023/10/27 01:50:18;;;;;;;3.08;0.50;;;;;;;8.59;100.00;90937.28;2073513;28;20057;-82
2023/10/27 01:51:19;;;;;;;0.82;0.50;;;;;;;8.27;100.00;90942.22;2088854;28;20048;-83
2023/10/27 01:52:19;;;;;;;1.20;0.55;;;;;;;8.45;100.00;90945.97;2098365;28;20036;-86
2023/10/27 01:53:21;;;;;;;2.33;0.47;;;;;;;8.56;100.00;90943.53;2089172;28;20037;-84
2023/10/27 01:54:22;;;;;;;0.73;0.60;;;;;;;8.48;100.00;90945.06;2073306;28;20061;-84
2023/10/27 01:55:24;;;;;;;0.65;0.52;;;;;;;8.36;100.00;90938.03;2073359;28;20025;-85
2023/10/27 01:56:25;;;;;;;1.15;0.45;;;;;;;8.46;100.00;90934.88;2073413;28;20121;-84
2023/10/27 01:57:26;;;;;;;3.30;0.40;;;;;;;8.67;100.00;90937.69;2073374;28;20503;-84
2023/10/27 01:58:28;;;;;;;2.00;0.45;;;;;;;8.76;100.00;90932.28;2080897;28;20468;-85
2023/10/27 01:59:29;;;;;;;1.85;0.47;;;;;;;8.50;100.00;90929.38;2081540;28;20022;-86
2023/10/27 02:00:30;;;;;;;0.70;0.40;;;;;;;8.64;100.00;90927.94;2081491;28;20021;-85
2023/10/27 02:01:31;;;;;;;2.17;0.52;;;;;;;8.70;100.00;90926.13;2081265;28;20168;-85
2023/10/27 02:02:32;;;;;;;1.40;0.60;;;;;;;8.40;100.00;90926.06;2073246;28;20056;-87
2023/10/27 02:03:32;;;;;;;1.60;0.50;;;;;;;8.28;100.00;90927.00;2080649;28;20476;-85
2023/10/27 02:04:35;;;;;;;2.10;0.45;;;;;;;8.54;100.00;90929.94;2081479;28;20098;-84
2023/10/27 02:05:43;;;;;;;2.42;0.80;;;;;;;8.58;100.00;90927.84;2089456;28;20039;-86
2023/10/27 02:06:44;;;;;;;1.38;0.50;;;;;;;8.67;100.00;90927.75;2081475;28;20119;-85
2023/10/27 02:07:45;;;;;;;0.70;0.60;;;;;;;8.70;100.00;90918.13;2081509;28;20029;-83
2023/10/27 02:08:46;;;;;;;1.77;0.40;;;;;;;8.65;100.00;90916.84;2081524;28;20021;-83
2023/10/27 02:09:47;;;;;;;1.30;0.70;;;;;;;8.69;100.00;90916.63;2073259;28;20069;-84
2023/10/27 02:10:48;;;;;;;0.93;0.50;;;;;;;8.40;100.00;90917.31;2081417;28;20025;-86
2023/10/27 02:11:49;;;;;;;3.83;0.65;;;;;;;8.45;100.00;90914.03;2089604;28;20110;-84
2023/10/27 02:12:50;;;;;;;1.50;0.60;;;;;;;8.52;100.00;90914.44;2089794;28;20028;-86
2023/10/27 02:13:51;;;;;;;2.28;0.55;;;;;;;8.46;100.00;90915.50;2073295;28;20032;-85
2023/10/27 02:14:52;;;;;;;4.03;0.40;;;;;;;8.63;100.00;90908.56;2081510;28;20018;-85
2023/10/27 02:15:53;;;;;;;0.88;0.40;;;;;;;8.54;100.00;90906.69;2088831;28;20103;-84
2023/10/27 02:16:54;;;;;;;0.68;0.55;;;;;;;8.42;100.00;90905.03;2089619;28;20028;-86
2023/10/27 02:17:56;;;;;;;0.55;0.50;;;;;;;8.46;100.00;90905.59;2072918;28;20026;-84
2023/10/27 02:18:57;;;;;;;1.00;0.50;;;;;;;8.44;100.00;90897.31;2081469;28;20025;-85
2023/10/27 02:19:58;;;;;;;1.38;0.45;;;;;;;8.30;100.00;90892.69;2089569;28;20025;-84
2023/10/27 02:20:59;;;;;;;0.73;0.50;;;;;;;8.17;100.00;90897.50;2089717;28;20440;-86
2023/10/27 02:23:49;;;;;;;;;;;;;;;7.62;100.00;90895.91;2148358;27;20113;-77
2023/10/27 02:24:50;;;;;;;1.65;0.50;;;;;;;7.95;100.00;90901.19;2148098;27;19934;-79
2023/10/27 02:25:52;;;;;;;1.48;0.40;;;;;;;7.82;100.00;90895.38;2148043;27;20022;-80
2023/10/27 02:26:53;;;;;;;0.63;0.50;;;;;;;7.78;100.00;90890.22;2148092;27;20050;-78
2023/10/27 02:27:54;;;;;;;1.08;0.40;;;;;;;7.90;100.00;90898.41;2144025;27;20029;-79
2023/10/27 02:28:55;;;;;;;0.80;0.45;;;;;;;7.91;100.00;90900.63;2133592;27;20149;-79
2023/10/27 02:29:56;;;;;;;1.05;0.45;;;;;;;7.84;100.00;90906.28;2131929;27;20412;-79
2023/10/27 02:30:57;;;;;;;0.55;0.43;;;;;;;7.80;100.00;90903.78;2123332;27;20105;-79
2023/10/27 02:31:58;;;;;;;0.73;0.40;;;;;;;7.97;100.00;90909.44;2124020;27;20034;-80
2023/10/27 02:32:59;;;;;;;1.35;0.50;;;;;;;7.87;100.00;90904.66;2133491;27;20435;-80
2023/10/27 02:34:00;;;;;;;3.25;0.50;;;;;;;7.84;100.00;90900.97;2133524;27;20046;-79
2023/10/27 02:35:01;;;;;;;0.82;0.50;;;;;;;7.73;100.00;90900.75;2140286;27;20022;-80
2023/10/27 02:36:02;;;;;;;1.40;0.60;;;;;;;7.66;100.00;90914.34;2139756;27;20030;-79
2023/10/27 02:37:04;;;;;;;0.90;0.40;;;;;;;7.77;100.00;90911.91;2134584;27;20095;-79
2023/10/27 02:38:05;;;;;;;2.25;0.50;;;;;;;7.75;100.00;90907.06;2121536;27;20468;-78
2023/10/27 02:39:06;;;;;;;0.60;0.40;;;;;;;7.73;100.00;90914.03;2130175;27;20098;-78
2023/10/27 02:40:07;;;;;;;3.00;0.50;;;;;;;7.94;100.00;90913.00;2138414;27;20386;-79
2023/10/27 02:41:11;;;;;;;3.13;0.55;;;;;;;7.78;100.00;90921.38;2139266;27;20434;-80
2023/10/27 02:42:13;;;;;;;0.73;0.45;;;;;;;7.93;100.00;90913.47;2129787;27;20023;-79
2023/10/27 02:43:14;;;;;;;0.52;0.30;;;;;;;7.87;100.00;90915.28;2129640;27;20027;-79
2023/10/27 02:44:15;;;;;;;0.63;0.55;;;;;;;7.87;100.00;90926.66;2129880;27;20056;-80
2023/10/27 02:45:16;;;;;;;1.08;0.40;;;;;;;7.95;100.00;90921.75;2112761;28;20389;-79
2023/10/27 02:46:17;;;;;;;1.65;0.50;;;;;;;8.00;100.00;90911.22;2119570;27;20027;-79
2023/10/27 02:47:18;;;;;;;0.43;0.30;;;;;;;7.97;100.00;90914.78;2130428;27;20023;-78
2023/10/27 02:48:19;;;;;;;2.63;0.50;;;;;;;7.91;100.00;90915.84;2121209;28;20038;-80
2023/10/27 02:49:20;;;;;;;1.08;0.38;;;;;;;7.87;100.00;90908.03;2112946;28;20077;-79
2023/10/27 02:50:20;;;;;;;4.38;0.50;;;;;;;7.93;100.00;90913.47;2121143;27;20023;-79
2023/10/27 02:51:22;;;;;;;2.85;0.30;;;;;;;7.74;100.00;90905.59;2130512;27;20553;-81
2023/10/27 02:52:22;;;;;;;2.13;0.60;;;;;;;7.88;100.00;90901.53;2120270;28;20015;-79
2023/10/27 02:53:23;;;;;;;0.32;0.30;;;;;;;7.79;100.00;90904.97;2112512;28;20103;-78
2023/10/27 02:54:24;;;;;;;1.20;0.40;;;;;;;7.74;100.00;90902.19;2121352;28;20102;-79
2023/10/27 02:55:25;;;;;;;1.33;0.40;;;;;;;7.64;100.00;90906.84;2121398;28;20024;-80
2023/10/27 02:56:26;;;;;;;2.15;0.50;;;;;;;7.82;100.00;90901.41;2121429;27;20066;-78
2023/10/27 02:57:27;;;;;;;1.40;0.50;;;;;;;7.82;100.00;90909.41;2129844;27;20023;-80
2023/10/27 02:58:28;;;;;;;0.47;0.32;;;;;;;7.69;100.00;90908.88;2131977;27;20510;-78
2023/10/27 02:59:29;;;;;;;0.70;0.52;;;;;;;7.80;100.00;90905.72;2133918;27;20027;-79
2023/10/27 03:00:30;;;;;;;1.83;0.40;;;;;;;7.83;100.00;90900.22;2134276;27;20022;-79
2023/10/27 03:01:31;;;;;;;1.05;0.40;;;;;;;7.89;100.00;90896.94;2125021;27;20068;-78
2023/10/27 03:02:32;;;;;;;0.40;0.40;;;;;;;7.97;100.00;90893.50;2105841;28;20024;-79
2023/10/27 03:03:34;;;;;;;1.23;0.45;;;;;;;8.10;100.00;90895.19;2119313;27;20024;-80
2023/10/27 03:04:36;;;;;;;1.95;0.50;;;;;;;8.08;100.00;90888.41;2123840;27;20031;-80
2023/10/27 03:05:37;;;;;;;2.92;0.40;;;;;;;8.05;100.00;90891.22;2117402;28;20031;-80
2023/10/27 03:06:38;;;;;;;2.05;0.68;;;;;;;8.09;100.00;90891.78;2113788;27;20465;-79
2023/10/27 03:07:39;;;;;;;0.70;0.40;;;;;;;8.01;100.00;90895.97;2132471;27;20327;-79
2023/10/27 03:08:42;;;;;;;3.25;0.55;;;;;;;7.96;100.00;90894.69;2129877;27;20471;-79
2023/10/27 03:09:43;;;;;;;1.45;1.02;;;;;;;8.01;100.00;90893.31;2129782;27;20026;-80
2023/10/27 03:10:44;;;;;;;2.08;0.50;;;;;;;8.07;100.00;90886.91;2130354;27;20019;-79
2023/10/27 03:11:45;;;;;;;0.82;0.47;;;;;;;7.95;100.00;90885.25;2130417;27;20041;-78
2023/10/27 03:12:46;;;;;;;0.50;0.50;;;;;;;8.06;100.00;90895.34;2130463;27;20481;-79
2023/10/27 03:13:47;;;;;;;3.63;0.75;;;;;;;7.72;100.00;90889.34;2130530;27;20022;-79
2023/10/27 03:14:48;;;;;;;1.55;0.43;;;;;;;7.97;100.00;90890.09;2120901;27;20019;-79
2023/10/27 03:15:49;;;;;;;1.75;0.50;;;;;;;7.86;100.00;90887.97;2112976;28;20024;-80
2023/10/27 03:16:50;;;;;;;3.28;0.52;;;;;;;7.94;100.00;90885.66;2121145;28;20031;-79
2023/10/27 03:17:51;;;;;;;1.75;0.57;;;;;;;7.96;100.00;90872.66;2121127;28;20487;-79
2023/10/27 03:18:54;;;;;;;0.98;0.50;;;;;;;7.90;100.00;90879.78;2121170;27;20027;-80
2023/10/27 03:19:55;;;;;;;1.85;0.63;;;;;;;7.95;100.00;90876.53;2138789;27;20101;-80
2023/10/27 03:20:57;;;;;;;5.68;0.50;;;;;;;7.93;100.00;90879.63;2129052;27;20048;-80
2023/10/27 03:21:58;;;;;;;1.67;0.60;;;;;;;7.90;100.00;90871.81;2121176;27;20023;-79
2023/10/27 03:22:59;;;;;;;3.80;0.50;;;;;;;7.93;100.00;90873.56;2120681;28;20544;-79
2023/10/27 03:23:59;;;;;;;1.13;0.63;;;;;;;7.85;100.00;90875.81;2120899;27;20019;-80
2023/10/27 03:25:01;;;;;;;0.73;0.60;;;;;;;7.80;100.00;90871.88;2121529;27;20383;-79
2023/10/27 03:26:02;;;;;;;1.85;0.50;;;;;;;7.86;100.00;90872.00;2120626;27;20027;-81
2023/10/27 03:27:04;;;;;;;1.85;0.88;;;;;;;7.78;100.00;90878.84;2104378;28;20024;-78
2023/10/27 03:28:06;;;;;;;1.25;0.70;;;;;;;7.89;100.00;90871.06;2114982;27;20054;-79
2023/10/27 03:29:07;;;;;;;2.42;0.60;;;;;;;7.94;100.00;90873.09;2124331;27;20024;-78
2023/10/27 03:30:09;;;;;;;0.52;0.52;;;;;;;8.04;100.00;90873.81;2124032;27;20046;-79
2023/10/27 03:31:12;;;;;;;1.00;0.60;;;;;;;8.03;100.00;90867.75;2117248;28;20023;-78
2023/10/27 03:32:15;;;;;;;1.10;1.00;;;;;;;7.97;100.00;90874.88;2119353;27;20164;-78
2023/10/27 03:33:17;;;;;;;1.05;0.80;;;;;;;7.86;100.00;90877.31;2122791;27;20042;-78
2023/10/27 03:34:18;;;;;;;3.30;0.75;;;;;;;7.99;100.00;90872.50;2118369;27;20419;-78
2023/10/27 03:35:19;;;;;;;2.15;0.60;;;;;;;7.83;100.00;90876.28;2119984;27;20030;-79
2023/10/27 03:36:21;;;;;;;3.42;1.20;;;;;;;7.85;100.00;90875.09;2120198;27;20023;-79
2023/10/27 03:37:22;;;;;;;1.08;0.82;;;;;;;7.91;100.00;90873.28;2119478;27;20023;-79
2023/10/27 03:38:24;;;;;;;3.22;0.60;;;;;;;7.82;100.00;90876.75;2115381;28;20032;-78
2023/10/27 03:39:25;;;;;;;0.93;0.90;;;;;;;8.19;100.00;90873.84;2107192;28;20065;-78
2023/10/27 03:40:26;;;;;;;4.35;1.00;;;;;;;8.03;100.00;90874.97;2097482;28;20020;-79
2023/10/27 03:41:27;;;;;;;1.08;0.80;;;;;;;8.11;100.00;90878.75;2106982;28;20024;-78
2023/10/27 03:42:28;;;;;;;0.93;0.70;;;;;;;7.97;100.00;90876.78;2115926;28;20104;-80
2023/10/27 03:43:29;;;;;;;0.70;0.60;;;;;;;7.93;100.00;90868.25;2123747;27;20027;-79
2023/10/27 03:44:30;;;;;;;0.85;0.57;;;;;;;8.02;100.00;90868.19;2122714;27;20022;-78
2023/10/27 03:45:31;;;;;;;0.60;0.60;;;;;;;8.11;100.00;90867.38;2123863;27;20128;-79
2023/10/27 03:46:32;;;;;;;1.48;0.50;;;;;;;8.01;100.00;90862.13;2124734;27;20027;-78
2023/10/27 03:47:33;;;;;;;2.40;0.60;;;;;;;8.05;100.00;90864.63;2123756;27;20085;-79
2023/10/27 03:48:35;;;;;;;1.85;0.60;;;;;;;8.03;100.00;90854.44;2115205;28;20019;-79
2023/10/27 03:49:36;;;;;;;1.55;0.40;;;;;;;7.97;100.00;90852.84;2115417;28;20030;-78
2023/10/27 03:50:37;;;;;;;0.90;0.50;;;;;;;8.01;100.00;90856.81;2115314;28;20034;-77
2023/10/27 03:51:38;;;;;;;0.73;0.60;;;;;;;8.01;100.00;90856.81;2115230;28;20078;-78
2023/10/27 03:52:39;;;;;;;1.70;0.50;;;;;;;8.06;100.00;90852.78;2122882;27;20464;-78
2023/10/27 03:53:39;;;;;;;1.38;0.45;;;;;;;7.98;100.00;90863.03;2123664;27;20447;-78
2023/10/27 03:54:40;;;;;;;1.20;0.60;;;;;;;8.04;100.00;90855.19;2123657;27;20023;-78
2023/10/27 03:55:41;;;;;;;1.55;0.47;;;;;;;8.08;100.00;90859.13;2123767;27;20031;-79
2023/10/27 03:56:42;;;;;;;0.90;0.70;;;;;;;8.13;100.00;90852.44;2115106;28;20490;-79
2023/10/27 03:57:43;;;;;;;0.70;0.50;;;;;;;8.00;100.00;90862.59;2120724;27;20027;-78
2023/10/27 03:58:44;;;;;;;3.38;0.35;;;;;;;8.07;100.00;90860.31;2116311;27;20016;-78
2023/10/27 03:59:46;;;;;;;1.88;0.43;;;;;;;8.11;100.00;90860.13;2124979;27;20623;-78
2023/10/27 04:00:47;;;;;;;0.73;0.63;;;;;;;8.04;100.00;90855.19;2118190;27;20055;-79
2023/10/27 04:01:48;;;;;;;0.98;0.50;;;;;;;8.10;100.00;90865.91;2113510;27;20462;-78
2023/10/27 04:02:49;;;;;;;1.20;0.60;;;;;;;8.16;100.00;90856.09;2119722;27;20051;-78
2023/10/27 04:03:50;;;;;;;2.35;0.60;;;;;;;8.03;100.00;90853.69;2106304;28;20016;-78
2023/10/27 04:04:51;;;;;;;1.27;0.60;;;;;;;8.01;100.00;90867.44;2113828;28;20019;-79
2023/10/27 04:05:52;;;;;;;0.57;0.50;;;;;;;8.11;100.00;90860.13;2120951;27;20053;-78
2023/10/27 04:06:54;;;;;;;0.73;0.60;;;;;;;8.16;100.00;90872.06;2116071;27;20026;-78
2023/10/27 04:07:55;;;;;;;3.53;2.75;;;;;;;8.04;100.00;90863.16;2115164;28;20028;-79
2023/10/27 04:08:56;;;;;;;6.05;4.90;;;;;;;8.04;100.00;90866.56;2115120;28;20043;-78
2023/10/27 04:09:58;;;;;;;6.47;4.90;;;;;;;8.08;100.00;90875.09;2106864;28;20879;-80
2023/10/27 04:10:59;;;;;;;8.38;5.78;;;;;;;8.13;100.00;90880.97;2106780;28;20079;-78
2023/10/27 04:12:00;;;;;;;5.82;4.10;;;;;;;8.14;100.00;90869.16;2114744;28;20023;-78
2023/10/27 04:13:02;;;;;;;3.88;3.20;;;;;;;8.09;100.00;90881.16;2111533;28;20019;-78
2023/10/27 04:14:04;;;;;;;7.25;3.80;;;;;;;8.05;100.00;90876.00;2111866;27;20367;-78
2023/10/27 04:15:05;;;;;;;2.67;1.75;;;;;;;8.10;100.00;90881.88;2106799;28;20028;-79
2023/10/27 04:16:07;;;;;;;2.80;1.35;;;;;;;8.08;100.00;90880.41;2113229;28;20267;-78
2023/10/27 04:17:08;;;;;;;0.90;0.90;;;;;;;8.06;100.00;90882.78;2115708;28;20043;-78
2023/10/27 04:18:09;;;;;;;1.27;0.80;;;;;;;8.16;100.00;90890.69;2114992;28;20063;-79
2023/10/27 04:19:10;;;;;;;3.60;2.20;;;;;;;8.01;100.00;90888.72;2115015;28;20030;-79
2023/10/27 04:20:11;;;;;;;1.10;1.00;;;;;;;8.05;100.00;90888.56;2115017;28;20023;-78
2023/10/27 04:21:12;;;;;;;1.10;1.00;;;;;;;8.08;100.00;90891.06;2114669;27;20053;-79
2023/10/27 04:22:14;;;;;;;1.70;1.60;;;;;;;8.16;100.00;90883.44;2119035;27;20057;-78
2023/10/27 04:23:15;;;;;;;1.52;1.30;;;;;;;8.27;100.00;90893.59;2117314;27;20125;-79
2023/10/27 04:24:17;;;;;;;3.38;2.17;;;;;;;8.40;100.00;90883.47;2108696;28;20171;-78
2023/10/27 04:25:18;;;;;;;2.40;1.95;;;;;;;8.43;100.00;90893.19;2116198;27;20035;-78
2023/10/27 04:26:18;;;;;;;1.48;1.27;;;;;;;8.41;100.00;90879.59;2114769;27;20053;-79
2023/10/27 04:27:19;;;;;;;2.28;1.52;;;;;;;8.49;100.00;90888.69;2115123;27;20049;-79
2023/10/27 04:28:21;;;;;;;5.85;4.30;;;;;;;8.60;100.00;90892.75;2112645;27;20117;-78
2023/10/27 04:29:21;;;;;;;6.00;4.40;;;;;;;8.48;100.00;90889.91;2111800;27;20461;-79
2023/10/27 04:30:25;;;;;;;4.60;4.05;;;;;;;8.26;100.00;90892.84;2106415;28;20023;-79
2023/10/27 04:31:26;;;;;;;2.60;2.40;;;;;;;8.26;100.00;90890.19;2092672;28;20025;-78
2023/10/27 04:32:29;;;;;;;2.45;2.25;;;;;;;8.37;100.00;90902.25;2109793;27;20129;-80
2023/10/27 04:33:31;;;;;;;1.45;1.35;;;;;;;8.40;100.00;90885.38;2114814;27;20061;-78
2023/10/27 04:34:32;;;;;;;1.48;1.38;;;;;;;8.37;100.00;90892.34;2116137;27;20035;-78
2023/10/27 04:35:33;;;;;;;1.55;1.45;;;;;;;8.35;100.00;90888.66;2118207;27;20030;-78
2023/10/27 04:36:34;;;;;;;1.30;1.20;;;;;;;8.30;100.00;90896.06;2116485;27;20044;-78
2023/10/27 04:37:35;;;;;;;1.10;0.73;;;;;;;8.29;100.00;90889.25;2105491;28;20447;-78
2023/10/27 04:38:36;;;;;;;1.10;0.80;;;;;;;8.32;100.00;90890.28;2118622;27;20568;-79
2023/10/27 04:39:37;;;;;;;0.60;0.60;;;;;;;8.30;100.00;90892.69;2118476;27;20147;-81
2023/10/27 04:40:38;;;;;;;0.70;0.50;;;;;;;8.29;100.00;90896.50;2113101;27;20036;-79
2023/10/27 04:41:39;;;;;;;1.63;0.60;;;;;;;8.39;100.00;90895.31;2118306;27;20023;-78
2023/10/27 04:42:39;;;;;;;0.80;0.70;;;;;;;8.50;100.00;90895.50;2113068;27;20028;-81
2023/10/27 04:43:40;;;;;;;1.10;0.70;;;;;;;8.51;100.00;90894.28;2117785;27;20019;-81
2023/10/27 04:44:41;;;;;;;0.50;0.50;;;;;;;8.62;100.00;90893.78;2123322;27;20105;-79
2023/10/27 04:45:42;;;;;;;0.70;0.65;;;;;;;8.57;100.00;90897.81;2117111;27;20019;-78
2023/10/27 04:46:43;;;;;;;0.95;0.95;;;;;;;8.68;100.00;90899.19;2110060;28;20055;-79
2023/10/27 04:47:44;;;;;;;0.80;0.80;;;;;;;8.72;100.00;90900.47;2104605;28;20062;-78
2023/10/27 04:48:45;;;;;;;0.93;0.68;;;;;;;8.71;100.00;90900.94;2100768;28;20024;-80
2023/10/27 04:49:46;;;;;;;1.00;0.90;;;;;;;8.69;100.00;90900.66;2103860;28;20024;-79
2023/10/27 04:51:03;;;;;;;0.55;0.55;;;;;;;8.74;100.00;90902.72;2120784;27;20472;-81